Time;durP1;ratioP1;P1;durP2;ratioP2;P2;SDS_P1;SDS_P2;PMS_P1;PMS_P2;Temp;Humidity;BMP_temperature;BMP_pressure;BME280_temperature;BME280_humidity;BME280_pressure;Samples;Min_cycle;Max_cycle;Signal;HPM_P1;HPM_P2
2021/12/20 00:01:05;;;;;;;4.80;1.80;;;;;;;5.21;90.46;101325.25;4993508;28;20480;-76
2021/12/20 00:03:30;;;;;;;7.45;2.53;;;;;;;5.25;90.55;101325.78;4993590;28;20034;-76
2021/12/20 00:05:56;;;;;;;5.93;2.83;;;;;;;5.20;89.81;101323.56;4993695;28;20037;-76
2021/12/20 00:08:21;;;;;;;9.48;2.63;;;;;;;5.20;90.13;101315.53;4993375;28;20030;-76
2021/12/20 00:10:46;;;;;;;14.75;2.70;;;;;;;5.18;89.74;101306.03;4993743;28;20432;-77
2021/12/20 00:13:12;;;;;;;6.57;2.33;;;;;;;5.21;89.77;101305.69;4995407;28;20052;-79
2021/12/20 00:15:37;;;;;;;5.27;1.73;;;;;;;5.27;89.39;101312.28;4997787;28;20449;-76
2021/12/20 00:18:02;;;;;;;9.88;2.70;;;;;;;5.42;89.51;101311.63;4980211;28;20124;-76
2021/12/20 00:20:28;;;;;;;7.20;1.95;;;;;;;5.45;88.80;101297.97;4997058;28;20047;-76
2021/12/20 00:22:53;;;;;;;5.15;1.80;;;;;;;5.32;88.86;101305.50;4997447;28;20448;-76
2021/12/20 00:25:19;;;;;;;12.55;2.92;;;;;;;5.39;88.89;101300.41;4997570;28;20034;-76
2021/12/20 00:27:44;;;;;;;5.18;2.13;;;;;;;5.32;88.23;101293.97;4997249;28;20110;-77
2021/12/20 00:30:11;;;;;;;9.63;1.80;;;;;;;5.27;87.26;101296.25;4980178;28;20457;-76
2021/12/20 00:32:38;;;;;;;8.77;2.75;;;;;;;5.31;85.99;101297.66;4997490;28;20046;-77
2021/12/20 00:35:05;;;;;;;9.02;1.95;;;;;;;5.45;86.69;101289.94;4997734;28;20046;-77
2021/12/20 00:40:23;;;;;;;6.82;2.00;;;;;;;5.42;84.08;101297.44;4997301;28;20100;-77
2021/12/20 00:43:00;;;;;;;8.13;1.77;;;;;;;5.35;84.38;101296.38;4997634;28;20030;-78
2021/12/20 00:45:30;;;;;;;4.32;1.33;;;;;;;5.47;84.48;101298.66;4997596;28;20033;-78
2021/12/20 00:47:56;;;;;;;5.07;1.65;;;;;;;5.35;82.40;101291.00;4997064;28;20557;-77
2021/12/20 00:50:23;;;;;;;4.68;1.60;;;;;;;5.51;83.66;101289.38;4997324;28;20109;-78
2021/12/20 00:52:50;;;;;;;4.10;1.52;;;;;;;5.53;83.29;101291.88;4997010;28;20396;-76
2021/12/20 00:55:18;;;;;;;6.00;1.95;;;;;;;5.45;82.78;101289.13;4996856;28;20026;-76
2021/12/20 00:57:44;;;;;;;5.75;1.20;;;;;;;5.56;83.10;101286.22;4997300;28;20502;-77
2021/12/20 01:00:11;;;;;;;3.65;1.30;;;;;;;5.55;83.30;101290.72;4957787;28;20628;-77
2021/12/20 01:02:36;;;;;;;6.15;1.92;;;;;;;5.75;83.23;101288.75;4997649;28;20035;-77
2021/12/20 01:05:03;;;;;;;3.17;1.13;;;;;;;5.67;82.98;101291.34;4996596;28;20034;-77
2021/12/20 01:07:29;;;;;;;7.90;1.30;;;;;;;5.53;81.40;101286.53;4996530;28;20038;-76
2021/12/20 01:09:58;;;;;;;9.52;1.23;;;;;;;5.38;81.73;101299.56;4996546;28;20079;-77
2021/12/20 01:12:27;;;;;;;3.97;0.90;;;;;;;5.41;81.68;101301.94;4996660;28;20100;-76
2021/12/20 01:14:58;;;;;;;4.70;1.10;;;;;;;5.69;80.23;101296.56;4996768;28;20064;-76
2021/12/20 01:17:24;;;;;;;9.25;1.10;;;;;;;5.68;81.57;101294.88;4996613;28;20022;-76
2021/12/20 01:19:49;;;;;;;5.53;1.52;;;;;;;5.45;80.19;101289.94;4996521;28;20466;-76
2021/12/20 01:22:14;;;;;;;5.70;1.17;;;;;;;5.39;80.04;101284.34;4996227;28;20026;-76
2021/12/20 01:24:40;;;;;;;10.37;1.73;;;;;;;5.39;79.94;101303.91;4994804;28;20056;-76
2021/12/20 01:27:05;;;;;;;4.23;1.10;;;;;;;5.32;80.66;101297.50;4996159;28;20340;-77
2021/12/20 01:29:30;;;;;;;3.87;1.63;;;;;;;5.32;80.40;101299.31;4996732;28;20058;-77
2021/12/20 01:31:56;;;;;;;2.58;1.00;;;;;;;5.66;80.59;101297.69;4996195;28;20344;-77
2021/12/20 01:34:22;;;;;;;6.60;1.40;;;;;;;5.38;78.95;101304.06;4996332;28;20034;-76
2021/12/20 01:36:47;;;;;;;6.95;2.13;;;;;;;5.54;80.19;101297.09;4996166;28;20026;-77
2021/12/20 01:39:12;;;;;;;8.83;1.23;;;;;;;5.63;80.97;101303.34;4996348;28;20465;-77
2021/12/20 01:41:43;;;;;;;6.18;1.75;;;;;;;5.62;81.46;101303.50;4996009;28;20531;-77
2021/12/20 01:44:09;;;;;;;6.97;1.88;;;;;;;5.62;80.29;101301.66;4996094;28;20030;-77
2021/12/20 01:46:35;;;;;;;3.30;0.85;;;;;;;5.68;80.93;101303.75;4996083;28;20110;-76
2021/12/20 01:49:03;;;;;;;4.60;1.00;;;;;;;5.78;81.77;101300.97;4978225;28;20030;-77
2021/12/20 01:51:45;;;;;;;7.55;2.42;;;;;;;5.55;82.30;101293.38;4995632;28;20038;-77
2021/12/20 01:54:11;;;;;;;4.65;1.70;;;;;;;5.53;83.42;101297.22;4996057;28;20380;-80
2021/12/20 01:56:40;;;;;;;3.88;1.67;;;;;;;5.40;83.94;101302.91;4995770;28;20109;-77
2021/12/20 01:59:08;;;;;;;3.35;1.17;;;;;;;5.51;83.67;101297.38;4995901;28;20060;-78
2021/12/20 02:01:34;;;;;;;7.40;1.45;;;;;;;5.44;84.38;101304.31;4978546;28;20030;-79
2021/12/20 02:04:05;;;;;;;6.82;1.92;;;;;;;5.44;84.98;101295.44;4995722;28;20519;-78
2021/12/20 02:06:35;;;;;;;4.70;1.00;;;;;;;5.51;84.69;101296.53;4995750;28;20036;-78
2021/12/20 02:09:05;;;;;;;4.15;1.45;;;;;;;5.64;85.26;101298.84;4995648;28;20118;-78
2021/12/20 02:11:31;;;;;;;10.88;1.50;;;;;;;5.47;84.40;101295.16;4995767;28;20381;-78
2021/12/20 02:13:56;;;;;;;5.63;1.50;;;;;;;5.40;84.98;101296.72;4995308;28;20034;-77
2021/12/20 02:16:23;;;;;;;4.18;1.38;;;;;;;5.48;84.09;101291.50;4978064;28;20496;-77
2021/12/20 02:18:48;;;;;;;3.75;1.67;;;;;;;5.38;84.01;101296.88;4995460;28;20078;-77
2021/12/20 02:21:14;;;;;;;9.82;2.08;;;;;;;5.30;84.21;101290.63;4995599;28;20425;-77
2021/12/20 02:23:39;;;;;;;5.40;1.63;;;;;;;5.28;84.23;101293.44;4995068;28;20041;-77
2021/12/20 02:26:06;;;;;;;4.30;1.42;;;;;;;5.31;83.53;101287.81;4995747;28;20034;-78
2021/12/20 02:28:38;;;;;;;10.02;1.98;;;;;;;5.23;84.00;101296.53;4995438;28;20117;-77
2021/12/20 02:39:08;;;;;;;5.63;1.50;;;;;;;5.12;83.94;101286.06;4995048;28;20108;-77
2021/12/20 02:41:34;;;;;;;4.68;1.27;;;;;;;5.15;82.57;101288.44;4996251;28;20453;-78
2021/12/20 02:44:05;;;;;;;7.00;1.75;;;;;;;5.22;82.59;101283.34;4995682;28;20448;-78
2021/12/20 02:49:15;;;;;;;11.52;2.40;;;;;;;5.27;81.72;101281.06;4999985;28;20066;-78
2021/12/20 02:51:41;;;;;;;9.15;1.50;;;;;;;5.35;82.25;101288.34;4999919;28;20388;-78
2021/12/20 02:54:09;;;;;;;6.70;1.83;;;;;;;5.36;80.51;101282.00;5000175;28;20034;-78
2021/12/20 02:56:35;;;;;;;3.72;1.10;;;;;;;5.26;81.45;101283.88;4999974;28;20033;-78
2021/12/20 02:59:02;;;;;;;9.02;1.15;;;;;;;5.25;81.21;101288.38;5001245;28;20022;-78
2021/12/20 03:01:27;;;;;;;10.35;1.50;;;;;;;5.17;81.40;101281.13;4958952;28;21207;-77
2021/12/20 03:03:55;;;;;;;4.43;1.30;;;;;;;5.27;80.06;101275.72;5002135;28;20050;-78
2021/12/20 03:06:27;;;;;;;12.23;1.67;;;;;;;5.36;77.50;101282.84;5000092;28;20385;-78
2021/12/20 03:08:55;;;;;;;7.78;1.75;;;;;;;5.20;79.20;101280.81;4995806;28;20041;-76
2021/12/20 03:11:24;;;;;;;4.38;1.23;;;;;;;5.16;77.88;101289.28;4994391;28;20030;-76
2021/12/20 03:13:54;;;;;;;8.27;1.67;;;;;;;5.28;78.09;101287.25;4994448;28;20088;-76
2021/12/20 03:16:20;;;;;;;2.13;0.77;;;;;;;5.26;76.43;101283.88;4994471;28;20492;-76
2021/12/20 03:18:46;;;;;;;5.80;1.40;;;;;;;5.34;76.64;101281.31;4994116;28;20034;-76
2021/12/20 03:21:11;;;;;;;4.47;2.00;;;;;;;5.27;75.40;101288.25;4994015;28;20062;-76
2021/12/20 03:23:37;;;;;;;3.92;0.90;;;;;;;5.32;75.99;101283.28;4993955;28;20031;-78
2021/12/20 03:26:03;;;;;;;9.18;2.15;;;;;;;5.49;74.21;101275.31;4994047;28;20042;-76
2021/12/20 03:28:29;;;;;;;3.25;0.90;;;;;;;5.45;74.94;101275.75;4993993;28;20034;-76
2021/12/20 03:30:54;;;;;;;9.10;1.13;;;;;;;5.45;73.63;101273.91;4993826;28;20432;-76
2021/12/20 03:33:19;;;;;;;5.07;1.55;;;;;;;5.38;74.75;101277.34;4994137;28;20038;-76
2021/12/20 03:35:45;;;;;;;5.33;1.27;;;;;;;5.52;74.75;101280.34;4994362;28;20038;-76
2021/12/20 03:38:10;;;;;;;5.27;1.10;;;;;;;5.55;73.29;101282.69;4994145;28;20257;-76
2021/12/20 03:40:37;;;;;;;4.67;0.90;;;;;;;5.68;71.44;101287.69;4994039;28;20265;-77
2021/12/20 03:43:02;;;;;;;5.40;0.88;;;;;;;5.61;71.79;101278.59;4993945;28;20751;-80
2021/12/20 03:45:28;;;;;;;5.80;1.55;;;;;;;5.45;71.84;101284.59;4994072;28;20049;-77
2021/12/20 03:47:53;;;;;;;4.57;1.20;;;;;;;5.41;72.64;101279.72;4993273;28;20034;-77
2021/12/20 03:50:19;;;;;;;5.25;0.88;;;;;;;5.49;71.84;101285.16;4993668;28;20023;-77
2021/12/20 03:52:45;;;;;;;5.80;1.50;;;;;;;5.41;72.38;101279.72;4993571;28;20444;-78
2021/12/20 03:55:13;;;;;;;4.67;1.13;;;;;;;5.51;72.26;101288.53;4993607;28;20034;-78
2021/12/20 03:57:38;;;;;;;3.63;1.80;;;;;;;5.65;71.33;101289.81;4995269;28;20253;-80
2021/12/20 04:00:06;;;;;;;6.45;0.93;;;;;;;5.55;71.22;101284.56;4998253;28;20444;-80
2021/12/20 04:02:39;;;;;;;5.72;1.20;;;;;;;5.39;72.82;101287.03;5002187;28;20042;-80
2021/12/20 04:05:05;;;;;;;6.53;1.05;;;;;;;5.37;72.77;101281.03;5000634;28;20030;-79
2021/12/20 04:07:30;;;;;;;;;;;;;;;5.36;73.41;101285.53;5002584;28;20053;-79
2021/12/20 04:09:58;;;;;;;6.30;1.30;;;;;;;5.48;72.29;101288.81;5005232;28;20356;-80
2021/12/20 04:12:23;;;;;;;4.47;0.60;;;;;;;5.48;74.41;101292.34;4999793;28;20061;-81
2021/12/20 04:14:48;;;;;;;7.43;0.70;;;;;;;5.42;73.79;101287.56;5000917;28;20034;-80
2021/12/20 04:17:14;;;;;;;9.23;1.47;;;;;;;5.45;74.07;101283.78;4999324;28;20269;-81
2021/12/20 04:19:39;;;;;;;3.83;0.88;;;;;;;5.45;74.02;101283.78;4997079;28;20037;-78
2021/12/20 04:22:05;;;;;;;2.92;1.20;;;;;;;5.32;74.50;101289.47;4994869;28;20034;-80
2021/12/20 04:24:30;;;;;;;10.45;1.33;;;;;;;5.40;75.22;101280.69;4994352;28;20113;-79
2021/12/20 04:26:55;;;;;;;7.50;2.80;;;;;;;5.38;74.84;101283.50;4995031;28;20385;-78
2021/12/20 04:29:21;;;;;;;5.43;1.03;;;;;;;5.43;75.05;101283.91;4997548;28;20264;-78
2021/12/20 04:31:46;;;;;;;7.15;1.23;;;;;;;5.42;75.38;101281.38;4998212;28;20723;-78
2021/12/20 04:34:12;;;;;;;4.85;1.52;;;;;;;5.32;74.42;101284.13;4997502;28;20452;-79
2021/12/20 04:36:37;;;;;;;3.27;0.77;;;;;;;5.48;75.65;101286.16;4998290;28;20034;-78
2021/12/20 04:39:06;;;;;;;7.67;1.20;;;;;;;5.36;75.36;101296.22;4979590;28;20266;-80
2021/12/20 04:41:32;;;;;;;3.20;0.90;;;;;;;5.36;75.37;101290.88;4996685;28;20470;-78
2021/12/20 04:43:57;;;;;;;7.20;0.73;;;;;;;5.45;75.66;101281.09;4995465;28;20077;-80
2021/12/20 04:46:22;;;;;;;6.47;1.08;;;;;;;5.33;74.73;101290.31;4995710;28;20125;-78
2021/12/20 04:48:48;;;;;;;7.63;1.10;;;;;;;5.26;76.05;101290.06;4994170;28;20030;-78
2021/12/20 04:51:13;;;;;;;7.53;1.25;;;;;;;5.38;76.15;101285.34;4996261;28;20253;-77
2021/12/20 04:53:38;;;;;;;6.13;0.98;;;;;;;5.27;77.02;101297.09;4993825;28;20042;-77
2021/12/20 04:56:04;;;;;;;5.88;1.00;;;;;;;5.48;76.92;101296.84;4993732;28;20469;-78
2021/12/20 04:58:29;;;;;;;9.53;1.03;;;;;;;5.33;77.15;101296.50;4993819;28;20110;-78
2021/12/20 05:00:54;;;;;;;7.20;1.30;;;;;;;5.60;76.71;101290.28;4968496;28;20317;-78
2021/12/20 05:03:20;;;;;;;3.83;1.43;;;;;;;5.56;76.89;101296.91;5003929;28;20277;-82
2021/12/20 05:05:45;;;;;;;6.47;1.23;;;;;;;5.63;75.95;101295.31;5004200;28;20276;-79
2021/12/20 05:08:12;;;;;;;5.00;1.10;;;;;;;5.57;76.63;101299.44;5000055;28;20045;-77
2021/12/20 05:10:40;;;;;;;5.50;2.05;;;;;;;5.69;76.74;101302.75;4996658;28;20629;-77
2021/12/20 05:13:08;;;;;;;3.85;1.30;;;;;;;5.64;75.39;101293.50;4996686;28;20030;-76
2021/12/20 05:15:35;;;;;;;5.93;1.75;;;;;;;5.71;73.87;101291.91;4979133;28;20042;-76
2021/12/20 05:18:01;;;;;;;3.55;0.77;;;;;;;5.45;76.20;101294.47;4996757;28;20125;-77
2021/12/20 05:20:27;;;;;;;17.48;2.15;;;;;;;5.49;75.75;101296.69;4996585;28;20077;-77
2021/12/20 05:22:54;;;;;;;2.72;0.82;;;;;;;5.55;74.60;101300.59;4996271;28;20547;-76
2021/12/20 05:25:19;;;;;;;5.85;1.58;;;;;;;5.56;74.48;101297.75;4996295;28;20030;-76
2021/12/20 05:27:45;;;;;;;11.80;2.75;;;;;;;5.52;75.18;101291.03;4996149;28;20034;-76
2021/12/20 05:30:12;;;;;;;8.93;2.08;;;;;;;5.51;75.90;101286.69;4996406;28;20229;-78
2021/12/20 05:32:38;;;;;;;8.07;1.80;;;;;;;5.39;75.61;101297.72;4996602;28;20046;-77
2021/12/20 05:35:04;;;;;;;;;;;;;;;5.45;74.29;101297.13;4996474;28;20120;-77
2021/12/20 05:37:30;;;;;;;5.73;1.70;;;;;;;5.41;74.80;101307.28;4996248;28;19910;-77
2021/12/20 05:39:55;;;;;;;10.02;2.47;;;;;;;5.39;75.14;101316.44;4978583;28;20089;-76
2021/12/20 05:42:20;;;;;;;8.00;1.40;;;;;;;5.32;75.44;101313.53;4995771;28;20473;-76
2021/12/20 05:44:46;;;;;;;7.27;1.53;;;;;;;5.30;75.52;101317.34;4996051;28;20026;-76
2021/12/20 05:47:11;;;;;;;7.22;2.22;;;;;;;5.28;75.58;101308.63;4995738;28;20341;-77
2021/12/20 05:49:36;;;;;;;9.43;2.50;;;;;;;5.22;76.26;101316.25;4995628;28;20045;-76
2021/12/20 05:52:03;;;;;;;7.35;1.88;;;;;;;5.24;76.05;101313.41;4995829;28;20065;-76
2021/12/20 05:54:30;;;;;;;7.55;1.40;;;;;;;5.18;76.62;101308.69;4995819;28;20095;-77
2021/12/20 05:56:56;;;;;;;15.63;2.95;;;;;;;5.17;76.91;101315.88;4995650;28;20469;-75
2021/12/20 05:59:21;;;;;;;7.38;1.20;;;;;;;5.18;76.78;101311.38;4995420;28;20037;-76
2021/12/20 06:01:46;;;;;;;10.03;2.43;;;;;;;5.15;76.46;101309.81;4994338;28;20519;-77
2021/12/20 06:04:11;;;;;;;9.23;2.23;;;;;;;5.08;76.67;101316.72;4996671;28;20036;-76
2021/12/20 06:06:37;;;;;;;9.88;1.75;;;;;;;4.99;77.24;101311.44;4995634;28;20272;-76
2021/12/20 06:09:02;;;;;;;10.90;2.23;;;;;;;5.01;77.79;101321.00;4995505;28;20046;-76
2021/12/20 06:11:27;;;;;;;8.83;2.37;;;;;;;4.92;77.84;101323.69;4994514;28;20330;-77
2021/12/20 06:13:53;;;;;;;5.57;1.05;;;;;;;4.93;77.57;101322.72;4995470;28;20066;-76
2021/12/20 06:16:18;;;;;;;9.43;2.30;;;;;;;4.85;78.26;101323.44;4995411;28;20066;-77
2021/12/20 06:18:44;;;;;;;6.15;1.48;;;;;;;4.78;78.28;101327.69;4995091;28;20042;-76
2021/12/20 06:21:09;;;;;;;6.93;1.27;;;;;;;4.76;79.25;101335.00;4995166;28;20234;-76
2021/12/20 06:23:35;;;;;;;6.40;1.85;;;;;;;4.73;78.99;101337.94;4995124;28;20290;-76
2021/12/20 06:26:01;;;;;;;5.30;1.25;;;;;;;4.72;79.41;101338.94;4994904;28;20046;-75
2021/12/20 06:28:26;;;;;;;10.35;1.27;;;;;;;4.69;79.57;101339.22;4994911;28;20034;-76
2021/12/20 06:30:52;;;;;;;14.98;1.85;;;;;;;4.69;79.36;101345.41;4978081;28;20034;-75
2021/12/20 06:33:17;;;;;;;9.57;1.45;;;;;;;4.64;79.95;101347.69;4994935;28;20453;-75
2021/12/20 06:35:42;;;;;;;8.30;2.70;;;;;;;4.55;79.98;101348.53;4995227;28;20469;-75
2021/12/20 06:38:11;;;;;;;7.50;2.20;;;;;;;4.56;80.29;101344.03;4995160;28;20265;-74
2021/12/20 06:40:36;;;;;;;5.50;1.30;;;;;;;4.45;80.56;101358.38;4994543;28;20034;-75
2021/12/20 06:43:03;;;;;;;12.07;1.80;;;;;;;4.40;80.91;101350.81;4994710;28;20034;-75
2021/12/20 06:45:29;;;;;;;7.95;1.42;;;;;;;4.34;81.62;101354.03;4994658;28;20034;-77
2021/12/20 06:47:55;;;;;;;4.60;1.23;;;;;;;4.44;80.78;101368.22;4994937;28;20377;-77
2021/12/20 06:50:20;;;;;;;5.55;1.52;;;;;;;4.35;80.83;101357.53;4977227;28;20111;-75
2021/12/20 06:52:45;;;;;;;10.95;1.45;;;;;;;4.26;81.19;101358.41;4994170;28;20030;-77
2021/12/20 06:55:11;;;;;;;9.15;2.28;;;;;;;4.26;81.22;101355.72;4994237;28;20068;-76
2021/12/20 06:57:36;;;;;;;7.22;1.83;;;;;;;4.22;81.67;101359.66;4994799;28;20042;-77
2021/12/20 07:00:03;;;;;;;5.13;1.80;;;;;;;4.21;82.04;101352.63;4957012;28;20037;-75
2021/12/20 07:02:28;;;;;;;5.05;1.70;;;;;;;4.23;81.66;101358.69;4977441;28;20049;-75
2021/12/20 07:04:54;;;;;;;10.10;1.90;;;;;;;4.19;82.04;101368.78;4994579;28;20042;-77
2021/12/20 07:07:19;;;;;;;4.43;0.97;;;;;;;4.17;82.15;101366.25;4994184;28;20277;-76
2021/12/20 07:09:44;;;;;;;10.70;1.90;;;;;;;4.18;82.18;101364.44;4994095;28;20046;-77
2021/12/20 07:12:10;;;;;;;7.30;1.83;;;;;;;4.15;82.10;101362.03;4976755;28;20292;-75
2021/12/20 07:14:35;;;;;;;8.10;1.10;;;;;;;4.17;82.05;101368.91;4994279;28;20030;-75
2021/12/20 07:17:01;;;;;;;14.60;2.08;;;;;;;4.22;82.91;101375.66;4993870;28;20393;-77
2021/12/20 07:19:26;;;;;;;8.20;1.33;;;;;;;4.14;81.78;101379.00;4993844;28;20038;-77
2021/12/20 07:21:51;;;;;;;7.37;1.57;;;;;;;4.19;82.50;101371.44;4994137;28;20289;-76
2021/12/20 07:24:16;;;;;;;7.83;1.87;;;;;;;4.25;81.48;101370.91;4993556;28;20030;-77
2021/12/20 07:26:43;;;;;;;9.15;2.08;;;;;;;4.23;80.67;101375.53;4993939;28;20311;-76
2021/12/20 07:29:08;;;;;;;9.30;1.30;;;;;;;4.10;80.86;101373.16;4993857;28;20392;-77
2021/12/20 07:31:34;;;;;;;10.35;2.38;;;;;;;4.02;81.72;101373.00;4993591;28;20034;-76
2021/12/20 07:33:59;;;;;;;7.72;1.83;;;;;;;4.03;81.79;101371.16;4993911;28;20077;-77
2021/12/20 07:36:24;;;;;;;13.32;1.50;;;;;;;3.95;81.73;101377.19;4993438;28;20062;-76
2021/12/20 07:38:50;;;;;;;6.78;2.03;;;;;;;3.93;81.72;101386.31;4993940;28;20084;-77
2021/12/20 07:41:18;;;;;;;11.77;1.75;;;;;;;3.84;81.90;101380.81;4993390;28;20038;-77
2021/12/20 07:43:44;;;;;;;11.57;1.90;;;;;;;3.84;82.31;101386.16;4993657;28;20034;-77
2021/12/20 07:46:09;;;;;;;5.88;1.48;;;;;;;3.85;82.45;101389.66;4993576;28;20085;-76
2021/12/20 07:48:34;;;;;;;11.43;2.00;;;;;;;3.86;82.35;101383.34;4993562;28;20030;-76
2021/12/20 07:51:01;;;;;;;10.60;1.77;;;;;;;3.84;82.35;101388.81;4993417;28;20634;-77
2021/12/20 07:53:32;;;;;;;6.53;2.65;;;;;;;3.80;82.88;101389.22;4993476;28;20265;-76
2021/12/20 07:55:57;;;;;;;6.72;1.90;;;;;;;3.80;82.54;101395.41;4993247;28;20030;-77
2021/12/20 07:58:23;;;;;;;10.88;2.15;;;;;;;3.87;82.29;101408.19;4993208;28;20542;-77
2021/12/20 08:00:50;;;;;;;8.45;1.80;;;;;;;3.88;82.85;101397.41;4993305;28;20054;-77
2021/12/20 08:03:15;;;;;;;8.00;1.95;;;;;;;3.86;82.66;101401.19;4993455;28;20050;-77
2021/12/20 08:05:40;;;;;;;7.97;2.83;;;;;;;3.93;82.72;101400.50;4993565;28;20117;-77
2021/12/20 08:08:06;;;;;;;11.07;2.53;;;;;;;3.98;82.57;101402.72;4993266;28;20038;-76
2021/12/20 08:10:32;;;;;;;13.55;2.53;;;;;;;3.96;82.23;101404.69;4993381;28;20028;-76
2021/12/20 08:12:57;;;;;;;12.73;2.80;;;;;;;3.89;82.40;101393.75;4993493;28;20465;-77
2021/12/20 08:15:23;;;;;;;5.72;1.80;;;;;;;3.97;82.48;101409.03;4993123;28;20026;-77
2021/12/20 08:17:49;;;;;;;9.27;1.73;;;;;;;3.89;81.95;101406.25;4993089;28;20069;-76
2021/12/20 08:20:15;;;;;;;9.35;2.72;;;;;;;3.92;82.02;101405.97;4993293;28;20402;-76
2021/12/20 08:22:40;;;;;;;10.40;2.20;;;;;;;3.99;81.90;101399.09;4993433;28;20034;-77
2021/12/20 08:25:07;;;;;;;7.57;1.95;;;;;;;3.89;81.44;101412.41;4993091;28;20744;-76
2021/12/20 08:27:33;;;;;;;4.55;1.52;;;;;;;3.82;82.25;101414.78;4992019;28;20031;-77
2021/12/20 08:29:58;;;;;;;7.20;2.28;;;;;;;3.81;82.48;101413.09;4992899;28;20022;-77
2021/12/20 08:32:24;;;;;;;5.50;1.65;;;;;;;3.89;82.18;101414.22;4993524;28;20135;-76
2021/12/20 08:34:49;;;;;;;5.95;1.65;;;;;;;3.80;82.35;101407.88;4996040;28;20118;-77
2021/12/20 08:37:15;;;;;;;14.40;2.03;;;;;;;3.90;82.08;101416.78;4997430;28;20034;-77
2021/12/20 08:39:40;;;;;;;4.60;1.48;;;;;;;3.83;82.16;101421.78;4997075;28;20101;-76
2021/12/20 08:42:06;;;;;;;9.57;1.73;;;;;;;3.83;82.10;101418.28;4995855;28;20073;-76
2021/12/20 08:44:33;;;;;;;6.57;2.13;;;;;;;3.92;82.25;101421.97;4995626;28;20027;-76
2021/12/20 08:47:00;;;;;;;6.63;1.70;;;;;;;3.78;81.89;101426.69;4995418;28;20141;-77
2021/12/20 08:49:27;;;;;;;9.18;2.58;;;;;;;3.76;82.61;101431.31;4997055;28;20040;-76
2021/12/20 08:51:54;;;;;;;10.73;2.53;;;;;;;3.77;82.56;101438.31;4996827;28;20034;-76
2021/12/20 08:54:20;;;;;;;7.78;2.15;;;;;;;3.83;82.15;101439.63;4997088;28;20038;-76
2021/12/20 08:56:45;;;;;;;12.52;2.50;;;;;;;3.74;82.20;101441.28;4996326;28;20046;-77
2021/12/20 08:59:11;;;;;;;8.88;2.83;;;;;;;3.75;82.98;101436.81;4996985;28;20030;-77
2021/12/20 09:01:36;;;;;;;13.88;3.33;;;;;;;3.74;83.36;101441.28;4954078;28;20077;-77
2021/12/20 09:04:09;;;;;;;13.98;2.78;;;;;;;3.75;82.70;101448.31;4996487;28;20035;-78
2021/12/20 09:06:38;;;;;;;8.63;1.65;;;;;;;3.71;82.77;101438.88;4980231;28;20475;-77
2021/12/20 09:09:05;;;;;;;8.85;2.05;;;;;;;3.76;82.95;101451.81;4997268;28;20030;-77
2021/12/20 09:11:30;;;;;;;9.23;1.75;;;;;;;3.70;82.67;101442.53;4979763;28;20026;-77
2021/12/20 09:13:56;;;;;;;5.65;2.30;;;;;;;3.74;82.67;101449.28;4996458;28;20076;-76
2021/12/20 09:16:22;;;;;;;9.95;2.17;;;;;;;3.81;83.24;101450.41;4996253;28;20457;-77
2021/12/20 09:18:48;;;;;;;10.23;1.88;;;;;;;3.91;82.45;101450.44;4996760;28;20026;-76
2021/12/20 09:21:14;;;;;;;14.35;2.75;;;;;;;3.90;82.26;101453.25;4996359;28;20057;-77
2021/12/20 09:23:40;;;;;;;11.50;2.70;;;;;;;4.01;81.63;101453.13;4979553;28;20026;-77
2021/12/20 09:26:05;;;;;;;9.02;2.83;;;;;;;3.99;81.74;101453.25;4996828;28;20038;-77
2021/12/20 09:28:31;;;;;;;11.38;2.53;;;;;;;4.03;81.90;101448.50;4996437;28;20461;-78
2021/12/20 09:30:57;;;;;;;13.60;3.88;;;;;;;4.09;81.85;101453.28;4996462;28;20038;-76
2021/12/20 09:33:22;;;;;;;;;;;;;;;4.14;81.54;101459.88;4996584;28;20034;-77
2021/12/20 09:35:50;;;;;;;8.02;2.20;;;;;;;4.13;81.04;101454.69;4995227;28;19909;-76
2021/12/20 09:38:17;;;;;;;14.05;4.00;;;;;;;4.19;80.97;101454.13;4996652;28;20026;-77
2021/12/20 09:41:01;;;;;;;7.43;1.80;;;;;;;4.15;80.23;101450.91;4997225;28;20030;-77
2021/12/20 09:43:27;;;;;;;8.85;2.45;;;;;;;4.19;80.43;101460.31;4995766;28;20046;-78
2021/12/20 09:45:55;;;;;;;12.60;2.80;;;;;;;4.09;80.57;101454.13;4994941;28;20040;-79
2021/12/20 09:48:20;;;;;;;12.85;2.58;;;;;;;4.12;80.72;101456.50;4996329;28;20034;-77
2021/12/20 09:50:46;;;;;;;8.75;2.47;;;;;;;4.25;80.31;101464.25;4995923;28;20085;-78
2021/12/20 09:53:14;;;;;;;;;;;;;;;4.22;80.22;101461.03;4996078;28;20030;-78
2021/12/20 09:55:43;;;;;;;8.88;2.80;;;;;;;4.26;80.66;101454.44;4995422;28;19941;-77
2021/12/20 09:58:08;;;;;;;9.25;2.83;;;;;;;4.38;80.45;101451.50;4995712;28;20037;-77
2021/12/20 10:00:34;;;;;;;7.30;2.25;;;;;;;4.43;79.82;101462.59;4995287;28;20031;-77
2021/12/20 10:02:59;;;;;;;8.57;2.67;;;;;;;4.52;80.03;101456.41;4995031;28;20034;-77
2021/12/20 10:05:25;;;;;;;11.43;2.90;;;;;;;4.64;80.07;101453.63;4995272;28;20066;-77
2021/12/20 10:07:51;;;;;;;14.40;2.80;;;;;;;4.69;79.11;101460.19;4995422;28;20488;-76
2021/12/20 10:10:35;;;;;;;;;;;;;;;4.74;78.33;101462.44;4995906;28;20041;-76
2021/12/20 10:13:01;;;;;;;8.70;2.42;;;;;;;4.79;78.12;101454.88;4995071;28;20004;-78
2021/12/20 10:15:34;;;;;;;7.47;2.10;;;;;;;4.85;77.14;101463.13;4995739;28;20062;-77
2021/12/20 10:18:00;;;;;;;7.55;2.00;;;;;;;4.79;76.55;101473.56;4995105;28;20088;-76
2021/12/20 10:20:31;;;;;;;9.90;1.88;;;;;;;4.86;75.70;101461.28;4994680;28;20046;-77
2021/12/20 10:23:12;;;;;;;7.63;2.45;;;;;;;4.86;75.70;101458.63;4995463;28;20030;-78
2021/12/20 10:25:38;;;;;;;12.13;2.45;;;;;;;4.95;74.93;101455.13;4995920;28;20034;-77
2021/12/20 10:28:19;;;;;;;7.00;1.77;;;;;;;4.92;75.29;101462.56;4996476;28;20122;-78
2021/12/20 10:30:51;;;;;;;7.75;2.75;;;;;;;4.94;75.14;101463.25;4996327;28;20030;-77
2021/12/20 10:33:19;;;;;;;7.68;2.00;;;;;;;4.97;73.91;101463.00;4996345;28;20041;-79
2021/12/20 10:36:02;;;;;;;9.57;1.75;;;;;;;4.92;73.37;101463.41;4996507;28;20026;-79
2021/12/20 10:38:33;;;;;;;9.57;1.55;;;;;;;4.91;74.01;101458.22;4996405;28;20030;-78
2021/12/20 10:41:22;;;;;;;17.17;3.00;;;;;;;5.01;74.30;101465.25;4997003;28;20177;-79
2021/12/20 10:43:54;;;;;;;8.23;2.80;;;;;;;5.11;73.54;101465.19;4979330;28;20121;-79
2021/12/20 10:46:28;;;;;;;10.50;2.88;;;;;;;5.22;73.93;101465.03;4994215;28;20465;-76
2021/12/20 10:49:11;;;;;;;12.75;1.98;;;;;;;5.29;73.80;101462.63;4995707;28;20037;-78
2021/12/20 10:51:39;;;;;;;9.05;2.03;;;;;;;5.29;73.49;101465.28;4994640;28;20023;-76
2021/12/20 10:54:11;;;;;;;14.35;2.80;;;;;;;5.42;72.26;101455.97;4994792;28;20035;-77
2021/12/20 10:56:57;;;;;;;12.70;2.47;;;;;;;5.49;71.99;101461.56;4995011;28;20053;-77
2021/12/20 10:59:25;;;;;;;11.82;2.63;;;;;;;5.47;71.25;101464.38;4998179;28;20034;-78
2021/12/20 11:04:25;;;;;;;7.82;2.05;;;;;;;5.48;71.28;101462.56;4995692;28;20172;-77
2021/12/20 11:09:04;;;;;;;8.57;1.67;;;;;;;5.55;71.29;101455.66;4996857;28;20473;-78
2021/12/20 11:09:52;;;;;;;;;;;;;;;5.59;70.76;101460.53;4995567;28;20061;-78
2021/12/20 11:12:24;;;;;;;5.50;1.80;;;;;;;5.58;70.00;101450.81;4995273;28;19914;-78
2021/12/20 11:15:12;;;;;;;6.78;1.95;;;;;;;5.69;69.63;101449.81;4995335;28;20062;-78
2021/12/20 11:17:45;;;;;;;9.30;2.33;;;;;;;5.76;67.37;101460.75;4994032;28;20039;-77
2021/12/20 11:20:18;;;;;;;8.50;1.20;;;;;;;5.76;65.93;101450.03;4994149;28;20057;-78
2021/12/20 11:22:44;;;;;;;10.23;2.50;;;;;;;5.63;66.03;101446.88;4994860;28;20026;-77
2021/12/20 11:25:14;;;;;;;7.85;1.48;;;;;;;5.51;66.37;101447.06;4993947;28;20037;-76
2021/12/20 11:27:53;;;;;;;6.47;1.70;;;;;;;5.55;67.38;101444.97;4994784;28;20038;-78
2021/12/20 11:30:23;;;;;;;5.65;1.67;;;;;;;5.75;66.04;101440.34;4997930;28;20156;-78
2021/12/20 11:32:49;;;;;;;7.93;1.88;;;;;;;5.81;65.82;101429.06;4995753;28;20548;-79
2021/12/20 11:35:16;;;;;;;2.92;1.20;;;;;;;5.89;65.94;101434.53;4997411;28;20111;-79
2021/12/20 11:37:42;;;;;;;5.45;1.00;;;;;;;6.03;64.35;101446.56;4979104;28;20026;-78
2021/12/20 11:40:10;;;;;;;3.95;1.50;;;;;;;5.97;64.34;101447.16;4995048;28;20405;-79
2021/12/20 11:42:35;;;;;;;8.18;1.35;;;;;;;5.91;65.06;101441.41;4994097;28;20054;-77
2021/12/20 11:45:05;;;;;;;11.25;2.60;;;;;;;6.02;63.71;101439.53;4994055;28;20026;-77
2021/12/20 11:47:53;;;;;;;5.63;1.60;;;;;;;6.11;63.56;101433.25;4992891;28;20030;-76
2021/12/20 11:50:22;;;;;;;6.32;1.98;;;;;;;6.07;63.34;101439.91;4994487;28;20543;-78